createdAt,value
2022-11-01T00:00:14.984Z,968.00
2022-11-01T00:01:15.260Z,968.04
2022-11-01T00:02:15.626Z,968.01
2022-11-01T00:03:15.759Z,968.02
2022-11-01T00:04:16.094Z,968.07
2022-11-01T00:05:16.331Z,967.96
2022-11-01T00:06:16.579Z,967.98
2022-11-01T00:07:16.858Z,967.98
2022-11-01T00:08:17.106Z,967.96
2022-11-01T00:09:17.469Z,967.95
2022-11-01T00:11:18.057Z,967.88
2022-11-01T00:12:18.355Z,967.92
2022-11-01T00:13:18.615Z,967.93
2022-11-01T00:14:18.843Z,967.88
2022-11-01T00:15:19.135Z,967.84
2022-11-01T00:16:19.383Z,967.83
2022-11-01T00:17:19.616Z,967.92
2022-11-01T00:18:19.960Z,967.83
2022-11-01T00:19:20.209Z,967.79
2022-11-01T00:20:20.570Z,967.80
2022-11-01T00:21:20.821Z,967.82
2022-11-01T00:22:21.094Z,967.87
2022-11-01T00:23:21.338Z,967.93
2022-11-01T00:24:21.592Z,967.97
2022-11-01T00:25:21.854Z,968.05
2022-11-01T00:26:22.102Z,968.06
2022-11-01T00:27:22.381Z,968.10
2022-11-01T00:28:22.612Z,968.14
2022-11-01T00:29:22.937Z,968.06
2022-11-01T00:30:23.290Z,968.04
2022-11-01T00:31:23.537Z,968.16
2022-11-01T00:32:23.899Z,968.16
2022-11-01T00:33:24.162Z,968.12
2022-11-01T00:34:24.411Z,968.11
2022-11-01T00:35:24.672Z,968.08
2022-11-01T00:36:24.988Z,968.08
2022-11-01T00:37:25.139Z,968.05
2022-11-01T00:38:25.382Z,968.06
2022-11-01T00:39:30.390Z,968.04
2022-11-01T00:40:26.886Z,968.05
2022-11-01T00:41:26.222Z,968.03
2022-11-01T00:42:26.475Z,968.08
2022-11-01T00:43:26.738Z,968.11
2022-11-01T00:44:26.987Z,968.17
2022-11-01T00:45:27.225Z,968.13
2022-11-01T00:46:27.498Z,968.08
2022-11-01T00:47:27.742Z,968.08
2022-11-01T00:48:28.001Z,968.11
2022-11-01T00:49:28.252Z,968.09
2022-11-01T00:50:28.502Z,968.05
2022-11-01T00:51:28.784Z,968.03
2022-11-01T00:52:29.030Z,967.96
2022-11-01T00:53:29.291Z,967.97
2022-11-01T00:54:29.559Z,968.03
2022-11-01T00:55:29.812Z,968.08
2022-11-01T00:56:30.061Z,968.14
2022-11-01T00:57:30.299Z,968.12
2022-11-01T00:58:30.558Z,968.07
2022-11-01T00:59:30.846Z,968.03
2022-11-01T01:00:31.103Z,968.01
2022-11-01T01:01:31.464Z,968.06
2022-11-01T01:02:31.784Z,968.11
2022-11-01T01:03:31.944Z,968.12
2022-11-01T01:04:32.222Z,968.11
2022-11-01T01:05:32.481Z,968.08
2022-11-01T01:06:32.734Z,968.02
2022-11-01T01:07:32.991Z,968.00
2022-11-01T01:08:33.238Z,968.04
2022-11-01T01:09:33.509Z,968.10
2022-11-01T01:10:33.762Z,968.18
2022-11-01T01:11:34.009Z,968.17
2022-11-01T01:12:34.358Z,968.12
2022-11-01T01:13:34.602Z,968.14
2022-11-01T01:14:34.880Z,968.16
2022-11-01T01:15:35.120Z,968.19
2022-11-01T01:16:35.482Z,968.19
2022-11-01T01:17:35.781Z,968.18
2022-11-01T01:18:36.060Z,968.10
2022-11-01T01:19:36.307Z,968.17
2022-11-01T01:20:36.580Z,968.19
2022-11-01T01:21:36.825Z,968.23
2022-11-01T01:22:37.058Z,968.19
2022-11-01T01:23:37.401Z,968.19
2022-11-01T01:24:37.664Z,968.18
2022-11-01T01:25:37.897Z,968.15
2022-11-01T01:26:38.145Z,968.17
2022-11-01T01:27:38.392Z,968.15
2022-11-01T01:28:41.947Z,968.12
2022-11-01T01:29:39.908Z,968.12
2022-11-01T01:30:39.213Z,968.09
2022-11-01T01:31:39.456Z,968.08
2022-11-01T01:32:39.709Z,968.04
2022-11-01T01:33:39.953Z,968.10
2022-11-01T01:34:40.230Z,968.11
2022-11-01T01:35:40.484Z,968.14
2022-11-01T01:36:40.727Z,968.09
2022-11-01T01:37:40.970Z,968.09
2022-11-01T01:38:41.208Z,968.03
2022-11-01T01:39:41.584Z,968.00
2022-11-01T01:40:41.822Z,968.01
2022-11-01T01:41:42.060Z,967.99
2022-11-01T01:42:42.326Z,967.99
2022-11-01T01:43:42.605Z,968.01
2022-11-01T01:44:42.871Z,967.98
2022-11-01T01:45:43.107Z,967.99
2022-11-01T01:46:43.345Z,968.02
2022-11-01T01:47:43.578Z,968.03
2022-11-01T01:48:43.958Z,968.04
2022-11-01T01:49:44.254Z,968.07
2022-11-01T01:50:44.540Z,968.08
2022-11-01T01:51:44.787Z,968.08
2022-11-01T01:52:45.121Z,968.03
2022-11-01T01:53:45.390Z,968.03
2022-11-01T01:54:45.637Z,968.05
2022-11-01T01:55:45.876Z,968.05
2022-11-01T01:56:46.230Z,968.02
2022-11-01T01:57:46.469Z,968.01
2022-11-01T01:58:46.736Z,968.01
2022-11-01T01:59:46.995Z,967.97
2022-11-01T02:00:47.325Z,967.93
2022-11-01T02:01:47.618Z,967.92
2022-11-01T02:02:47.804Z,967.93
2022-11-01T02:03:48.070Z,967.94
2022-11-01T02:04:48.311Z,967.95
2022-11-01T02:05:48.559Z,967.95
2022-11-01T02:06:48.832Z,967.99
2022-11-01T02:07:49.091Z,968.02
2022-11-01T02:08:49.330Z,968.06
2022-11-01T02:09:49.577Z,967.98
2022-11-01T02:10:49.877Z,967.95
2022-11-01T02:11:50.113Z,967.97
2022-11-01T02:12:50.448Z,968.05
2022-11-01T02:13:50.732Z,968.05
2022-11-01T02:14:50.984Z,968.01
2022-11-01T02:15:51.217Z,968.04
2022-11-01T02:16:51.461Z,968.02
2022-11-01T02:17:51.713Z,968.05
2022-11-01T02:18:51.976Z,968.00
2022-11-01T02:19:52.219Z,967.99
2022-11-01T02:20:52.508Z,967.95
2022-11-01T02:21:52.736Z,967.95
2022-11-01T02:22:53.080Z,967.90
2022-11-01T02:23:53.379Z,967.89
2022-11-01T02:24:53.621Z,967.86
2022-11-01T02:25:53.986Z,967.84
2022-11-01T02:26:54.234Z,967.83
2022-11-01T02:27:54.480Z,967.79
2022-11-01T02:28:54.747Z,967.80
2022-11-01T02:29:54.989Z,967.80
2022-11-01T02:30:55.238Z,967.81
2022-11-01T02:31:55.499Z,967.80
2022-11-01T02:32:55.769Z,967.88
2022-11-01T02:33:56.036Z,967.90
2022-11-01T02:34:56.284Z,967.98
2022-11-01T02:35:56.529Z,968.00
2022-11-01T02:36:56.816Z,968.04
2022-11-01T02:37:57.085Z,968.01
2022-11-01T02:38:57.453Z,968.09
2022-11-01T02:39:57.587Z,968.09
2022-11-01T02:40:57.823Z,968.14
2022-11-01T02:41:58.092Z,968.09
2022-11-01T02:42:58.555Z,968.10
2022-11-01T02:43:58.608Z,968.08
2022-11-01T02:44:58.953Z,968.16
2022-11-01T02:45:59.236Z,968.15
2022-11-01T02:46:59.495Z,968.13
2022-11-01T02:47:59.748Z,968.11
2022-11-01T02:48:59.996Z,968.13
2022-11-01T02:50:00.228Z,968.14
2022-11-01T02:51:00.597Z,968.12
2022-11-01T02:52:00.837Z,968.11
2022-11-01T02:53:01.518Z,968.08
2022-11-01T02:54:01.417Z,968.06
2022-11-01T02:55:01.672Z,968.09
2022-11-01T02:56:01.955Z,968.08
2022-11-01T02:57:02.197Z,968.08
2022-11-01T02:58:02.668Z,968.11
2022-11-01T02:59:02.766Z,968.14
2022-11-01T03:00:03.039Z,968.12
2022-11-01T03:01:03.397Z,968.11
2022-11-01T03:02:03.723Z,968.10
2022-11-01T03:03:03.838Z,968.10
2022-11-01T03:04:04.080Z,968.11
2022-11-01T03:05:04.324Z,968.10
2022-11-01T03:06:04.683Z,968.12
2022-11-01T03:07:04.931Z,968.13
2022-11-01T03:08:05.469Z,968.12
2022-11-01T03:09:05.447Z,968.10
2022-11-01T03:10:05.696Z,968.09
2022-11-01T03:11:06.825Z,968.11
2022-11-01T03:12:06.240Z,968.15
2022-11-01T03:13:06.494Z,968.20
2022-11-01T03:14:06.768Z,968.24
2022-11-01T03:15:07.042Z,968.25
2022-11-01T03:16:07.318Z,968.28
2022-11-01T03:17:07.563Z,968.28
2022-11-01T03:18:07.806Z,968.32
2022-11-01T03:19:08.081Z,968.32
2022-11-01T03:20:08.328Z,968.32
2022-11-01T03:21:08.573Z,968.29
2022-11-01T03:22:08.814Z,968.26
2022-11-01T03:23:09.153Z,968.19
2022-11-01T03:24:09.422Z,968.20
2022-11-01T03:25:09.655Z,968.23
2022-11-01T03:26:09.902Z,968.20
2022-11-01T03:27:10.150Z,968.23
2022-11-01T03:28:10.377Z,968.26
2022-11-01T03:29:10.743Z,968.22
2022-11-01T03:30:11.026Z,968.21
2022-11-01T03:31:11.295Z,968.26
2022-11-01T03:32:11.533Z,968.33
2022-11-01T03:33:11.777Z,968.39
2022-11-01T03:34:12.120Z,968.38
2022-11-01T03:35:12.409Z,968.45
2022-11-01T03:36:14.688Z,968.48
2022-11-01T03:37:12.892Z,968.43
2022-11-01T03:38:13.234Z,968.42
2022-11-01T03:39:13.573Z,968.47
2022-11-01T03:40:13.846Z,968.47
2022-11-01T03:41:14.125Z,968.50
2022-11-01T03:42:14.387Z,968.49
2022-11-01T03:43:14.625Z,968.54
2022-11-01T03:44:14.914Z,968.53
2022-11-01T03:45:15.211Z,968.51
2022-11-01T03:46:15.480Z,968.48
2022-11-01T03:47:15.749Z,968.55
2022-11-01T03:48:16.002Z,968.57
2022-11-01T03:49:16.245Z,968.64
2022-11-01T03:50:16.500Z,968.70
2022-11-01T03:51:16.772Z,968.63
2022-11-01T03:52:17.025Z,968.67
2022-11-01T03:53:17.273Z,968.80
2022-11-01T03:54:17.524Z,968.80
2022-11-01T03:55:17.745Z,968.80
2022-11-01T03:56:18.043Z,968.88
2022-11-01T03:57:18.281Z,968.90
2022-11-01T03:58:18.610Z,968.91
2022-11-01T03:59:18.853Z,968.92
2022-11-01T04:00:19.195Z,968.90
2022-11-01T04:01:19.558Z,968.98
2022-11-01T04:02:19.759Z,969.04
2022-11-01T04:03:19.992Z,968.93
2022-11-01T04:04:20.245Z,968.98
2022-11-01T04:05:20.499Z,969.04
2022-11-01T04:06:20.746Z,969.00
2022-11-01T04:07:21.020Z,969.00
2022-11-01T04:08:21.274Z,969.02
2022-11-01T04:09:21.526Z,968.96
2022-11-01T04:10:21.774Z,968.94
2022-11-01T04:11:22.032Z,968.91
2022-11-01T04:12:22.318Z,968.91
2022-11-01T04:13:22.564Z,968.85
2022-11-01T04:14:22.791Z,968.89
2022-11-01T04:15:23.025Z,968.92
2022-11-01T04:16:23.363Z,968.96
2022-11-01T04:17:23.639Z,968.95
2022-11-01T04:18:23.895Z,968.95
2022-11-01T04:19:24.135Z,968.95
2022-11-01T04:20:24.391Z,968.99
2022-11-01T04:21:24.642Z,969.03
2022-11-01T04:22:24.920Z,969.08
2022-11-01T04:23:25.173Z,969.05
2022-11-01T04:24:25.460Z,969.09
2022-11-01T04:25:25.703Z,969.10
2022-11-01T04:26:25.951Z,969.07
2022-11-01T04:27:26.224Z,969.06
2022-11-01T04:28:26.473Z,969.10
2022-11-01T04:29:26.711Z,969.17
2022-11-01T04:30:27.050Z,969.18
2022-11-01T04:31:27.276Z,969.20
2022-11-01T04:32:27.577Z,969.23
2022-11-01T04:33:27.814Z,969.24
2022-11-01T04:34:28.062Z,969.21
2022-11-01T04:35:28.447Z,969.21
2022-11-01T04:36:28.690Z,969.26
2022-11-01T04:37:28.923Z,969.31
2022-11-01T04:38:29.172Z,969.34
2022-11-01T04:39:29.425Z,969.32
2022-11-01T04:40:29.672Z,969.31
2022-11-01T04:41:29.931Z,969.30
2022-11-01T04:42:30.184Z,969.35
2022-11-01T04:43:30.439Z,969.31
2022-11-01T04:44:30.712Z,969.38
2022-11-01T04:45:30.964Z,969.39
2022-11-01T04:46:31.222Z,969.44
2022-11-01T04:47:31.475Z,969.45
2022-11-01T04:48:31.723Z,969.46
2022-11-01T04:49:31.994Z,969.49
2022-11-01T04:50:32.268Z,969.47
2022-11-01T04:51:32.559Z,969.47
2022-11-01T04:52:32.834Z,969.48
2022-11-01T04:53:33.120Z,969.51
2022-11-01T04:54:33.431Z,969.45
2022-11-01T04:55:33.646Z,969.47
2022-11-01T04:56:33.992Z,969.44
2022-11-01T04:57:34.250Z,969.46
2022-11-01T04:58:34.522Z,969.48
2022-11-01T04:59:34.786Z,969.52
2022-11-01T05:00:35.092Z,969.55
2022-11-01T05:01:35.475Z,969.51
2022-11-01T05:02:35.637Z,969.51
2022-11-01T05:03:35.899Z,969.55
2022-11-01T05:04:36.173Z,969.56
2022-11-01T05:05:36.421Z,969.52
2022-11-01T05:06:36.739Z,969.57
2022-11-01T05:07:36.992Z,969.55
2022-11-01T05:08:37.341Z,969.59
2022-11-01T05:09:37.585Z,969.54
2022-11-01T05:10:37.831Z,969.61
2022-11-01T05:11:38.108Z,969.63
2022-11-01T05:12:38.359Z,969.62
2022-11-01T05:13:38.593Z,969.70
2022-11-01T05:14:38.942Z,969.71
2022-11-01T05:15:40.083Z,969.73
2022-11-01T05:16:39.464Z,969.75
2022-11-01T05:17:39.717Z,969.77
2022-11-01T05:18:40.001Z,969.72
2022-11-01T05:19:40.273Z,969.71
2022-11-01T05:20:40.521Z,969.71
2022-11-01T05:21:40.759Z,969.74
2022-11-01T05:22:41.013Z,969.75
2022-11-01T05:23:41.292Z,969.75
2022-11-01T05:25:41.808Z,969.78
2022-11-01T05:26:42.045Z,969.80
2022-11-01T05:27:42.385Z,969.83
2022-11-01T05:28:42.672Z,969.82
2022-11-01T05:29:42.916Z,969.82
2022-11-01T05:30:43.281Z,969.82
2022-11-01T05:31:43.543Z,969.86
2022-11-01T05:32:43.796Z,969.86
2022-11-01T05:33:44.062Z,969.84
2022-11-01T05:34:44.318Z,969.88
2022-11-01T05:35:44.561Z,969.85
2022-11-01T05:36:44.799Z,969.91
2022-11-01T05:37:45.059Z,969.95
2022-11-01T05:38:45.335Z,969.99
2022-11-01T05:39:45.582Z,970.00
2022-11-01T05:40:45.842Z,969.96
2022-11-01T05:41:46.101Z,970.00
2022-11-01T05:42:46.376Z,970.05
2022-11-01T05:43:46.655Z,970.09
2022-11-01T05:44:46.946Z,970.10
2022-11-01T05:45:47.194Z,970.14
2022-11-01T05:46:47.537Z,970.17
2022-11-01T05:47:47.811Z,970.18
2022-11-01T05:48:48.059Z,970.19
2022-11-01T05:49:48.307Z,970.18
2022-11-01T05:50:48.576Z,970.20
2022-11-01T05:51:48.821Z,970.17
2022-11-01T05:52:49.052Z,970.25
2022-11-01T05:53:49.301Z,970.25
2022-11-01T05:54:49.682Z,970.32
2022-11-01T05:55:49.921Z,970.33
2022-11-01T05:56:50.165Z,970.33
2022-11-01T05:57:50.541Z,970.38
2022-11-01T05:58:50.789Z,970.40
2022-11-01T05:59:51.040Z,970.44
2022-11-01T06:00:51.279Z,970.45
2022-11-01T06:01:51.699Z,970.48
2022-11-01T06:02:51.962Z,970.51
2022-11-01T06:03:52.149Z,970.51
2022-11-01T06:04:52.398Z,970.53
2022-11-01T06:05:52.640Z,970.52
2022-11-01T06:06:52.892Z,970.52
2022-11-01T06:07:53.228Z,970.48
2022-11-01T06:08:53.582Z,970.48
2022-11-01T06:09:53.764Z,970.50
2022-11-01T06:10:54.063Z,970.48
2022-11-01T06:11:54.321Z,970.48
2022-11-01T06:12:54.565Z,970.51
2022-11-01T06:13:54.907Z,970.52
2022-11-01T06:14:55.173Z,970.51
2022-11-01T06:15:55.439Z,970.52
2022-11-01T06:16:55.713Z,970.53
2022-11-01T06:17:55.995Z,970.54
2022-11-01T06:18:56.240Z,970.58
2022-11-01T06:19:56.484Z,970.63
2022-11-01T06:20:56.752Z,970.57
2022-11-01T06:21:56.999Z,970.59
2022-11-01T06:22:57.263Z,970.63
2022-11-01T06:23:57.516Z,970.61
2022-11-01T06:24:57.839Z,970.66
2022-11-01T06:25:58.113Z,970.63
2022-11-01T06:26:58.382Z,970.66
2022-11-01T06:27:58.740Z,970.69
2022-11-01T06:28:58.888Z,970.69
2022-11-01T06:29:59.154Z,970.75
2022-11-01T06:30:59.496Z,970.75
2022-11-01T06:32:03.528Z,970.78
2022-11-01T06:33:00.431Z,970.78
2022-11-01T06:34:01.310Z,970.83
2022-11-01T06:35:00.614Z,970.84
2022-11-01T06:36:00.992Z,970.82
2022-11-01T06:37:01.246Z,970.86
2022-11-01T06:38:01.485Z,970.89
2022-11-01T06:39:01.742Z,970.94
2022-11-01T06:40:01.983Z,970.93
2022-11-01T06:41:02.356Z,971.00
2022-11-01T06:42:02.621Z,970.99
2022-11-01T06:43:03.118Z,971.01
2022-11-01T06:44:03.184Z,970.98
2022-11-01T06:45:03.453Z,971.01
2022-11-01T06:46:03.731Z,971.01
2022-11-01T06:47:03.969Z,971.05
2022-11-01T06:48:04.832Z,971.03
2022-11-01T06:49:04.626Z,971.05
2022-11-01T06:50:04.850Z,971.08
2022-11-01T06:51:05.133Z,971.09
2022-11-01T06:52:05.416Z,971.17
2022-11-01T06:53:06.399Z,971.16
2022-11-01T06:54:05.948Z,971.16
2022-11-01T06:55:06.232Z,971.16
2022-11-01T06:56:06.524Z,971.17
2022-11-01T06:57:06.783Z,971.17
2022-11-01T06:58:07.571Z,971.15
2022-11-01T06:59:07.351Z,971.16
2022-11-01T07:00:07.612Z,971.11
2022-11-01T07:01:08.018Z,971.15
2022-11-01T07:02:13.760Z,971.14
2022-11-01T07:03:09.416Z,971.16
2022-11-01T07:04:08.788Z,971.19
2022-11-01T07:05:09.033Z,971.15
2022-11-01T07:06:09.304Z,971.12
2022-11-01T07:07:10.813Z,971.09
2022-11-01T07:08:09.866Z,971.12
2022-11-01T07:09:10.129Z,971.14
2022-11-01T07:10:10.387Z,971.12
2022-11-01T07:11:10.667Z,971.10
2022-11-01T07:12:10.909Z,971.13
2022-11-01T07:13:11.197Z,971.15
2022-11-01T07:14:11.431Z,971.18
2022-11-01T07:15:12.723Z,971.17
2022-11-01T07:16:11.947Z,971.15
2022-11-01T07:17:12.270Z,971.19
2022-11-01T07:18:12.585Z,971.16
2022-11-01T07:19:12.827Z,971.15
2022-11-01T07:20:13.164Z,971.13
2022-11-01T07:21:13.380Z,971.12
2022-11-01T07:22:13.623Z,971.10
2022-11-01T07:23:14.817Z,971.10
2022-11-01T07:24:14.140Z,971.13
2022-11-01T07:25:14.404Z,971.20
2022-11-01T07:26:14.685Z,971.21
2022-11-01T07:27:20.209Z,971.21
2022-11-01T07:28:16.210Z,971.25
2022-11-01T07:29:15.419Z,971.20
2022-11-01T07:30:15.678Z,971.21
2022-11-01T07:31:15.953Z,971.18
2022-11-01T07:32:16.569Z,971.19
2022-11-01T07:33:16.488Z,971.15
2022-11-01T07:34:16.731Z,971.15
2022-11-01T07:35:16.979Z,971.17
2022-11-01T07:36:17.282Z,971.17
2022-11-01T07:37:21.483Z,971.14
2022-11-01T07:38:18.073Z,971.16
2022-11-01T07:39:18.117Z,971.15
2022-11-01T07:40:18.358Z,971.15
2022-11-01T07:41:18.590Z,971.13
2022-11-01T07:42:18.843Z,971.14
2022-11-01T07:43:19.113Z,971.16
2022-11-01T07:44:19.359Z,971.19
2022-11-01T07:45:19.597Z,971.18
2022-11-01T07:46:19.867Z,971.13
2022-11-01T07:47:20.121Z,971.20
2022-11-01T07:48:20.384Z,971.20
2022-11-01T07:49:20.662Z,971.23
2022-11-01T07:50:20.908Z,971.19
2022-11-01T07:51:21.187Z,971.18
2022-11-01T07:52:21.430Z,971.22
2022-11-01T07:53:21.663Z,971.19
2022-11-01T07:54:21.905Z,971.19
2022-11-01T07:55:22.147Z,971.21
2022-11-01T07:56:22.426Z,971.23
2022-11-01T07:57:22.661Z,971.30
2022-11-01T07:58:22.938Z,971.31
2022-11-01T07:59:23.192Z,971.28
2022-11-01T08:00:23.487Z,971.24
2022-11-01T08:01:23.907Z,971.27
2022-11-01T08:02:24.241Z,971.25
2022-11-01T08:03:24.345Z,971.27
2022-11-01T08:04:24.570Z,971.32
2022-11-01T08:05:24.823Z,971.31
2022-11-01T08:06:25.600Z,971.32
2022-11-01T08:07:25.363Z,971.31
2022-11-01T08:08:25.895Z,971.37
2022-11-01T08:09:26.016Z,971.33
2022-11-01T08:10:26.254Z,971.31
2022-11-01T08:11:26.507Z,971.30
2022-11-01T08:12:26.742Z,971.32
2022-11-01T08:13:27.025Z,971.30
2022-11-01T08:14:27.272Z,971.33
2022-11-01T08:15:27.506Z,971.39
2022-11-01T08:16:27.754Z,971.38
2022-11-01T08:17:27.986Z,971.39
2022-11-01T08:18:28.252Z,971.39
2022-11-01T08:19:28.513Z,971.47
2022-11-01T08:20:28.768Z,971.47
2022-11-01T08:21:29.045Z,971.47
2022-11-01T08:22:29.278Z,971.45
2022-11-01T08:23:29.554Z,971.43
2022-11-01T08:24:29.792Z,971.41
2022-11-01T08:25:30.282Z,971.37
2022-11-01T08:26:30.306Z,971.35
2022-11-01T08:27:32.925Z,971.35
2022-11-01T08:28:30.862Z,971.29
2022-11-01T08:29:31.100Z,971.28
2022-11-01T08:30:31.348Z,971.27
2022-11-01T08:31:31.586Z,971.26
2022-11-01T08:32:31.812Z,971.21
2022-11-01T08:33:32.079Z,971.17
2022-11-01T08:34:32.312Z,971.18
2022-11-01T08:35:32.539Z,971.21
2022-11-01T08:36:32.802Z,971.22
2022-11-01T08:37:33.081Z,971.18
2022-11-01T08:38:33.349Z,971.17
2022-11-01T08:39:33.629Z,971.23
2022-11-01T08:40:33.909Z,971.19
2022-11-01T08:41:37.223Z,971.20
2022-11-01T08:42:34.412Z,971.22
2022-11-01T08:43:39.499Z,971.19
2022-11-01T08:44:35.921Z,971.20
2022-11-01T08:45:35.198Z,971.20
2022-11-01T08:46:35.447Z,971.23
2022-11-01T08:47:35.785Z,971.22
2022-11-01T08:48:36.150Z,971.23
2022-11-01T08:49:36.379Z,971.22
2022-11-01T08:50:36.617Z,971.20
2022-11-01T08:51:36.889Z,971.18
2022-11-01T08:52:37.131Z,971.12
2022-11-01T08:53:37.389Z,971.12
2022-11-01T08:54:37.615Z,971.16
2022-11-01T08:55:38.473Z,971.11
2022-11-01T08:56:38.189Z,971.18
2022-11-01T08:57:38.541Z,971.10
2022-11-01T08:58:38.916Z,971.11
2022-11-01T08:59:39.156Z,971.09
2022-11-01T09:00:39.407Z,971.07
2022-11-01T09:01:39.870Z,971.10
2022-11-01T09:02:39.961Z,971.09
2022-11-01T09:03:40.206Z,971.07
2022-11-01T09:04:40.443Z,971.10
2022-11-01T09:05:40.701Z,971.13
2022-11-01T09:06:40.923Z,971.14
2022-11-01T09:07:41.190Z,971.15
2022-11-01T09:08:41.448Z,971.13
2022-11-01T09:09:41.683Z,971.13
2022-11-01T09:10:41.911Z,971.12
2022-11-01T09:11:42.140Z,971.13
2022-11-01T09:12:42.361Z,971.09
2022-11-01T09:13:42.721Z,971.13
2022-11-01T09:14:43.721Z,971.11
2022-11-01T09:15:43.241Z,971.12
2022-11-01T09:16:43.499Z,971.14
2022-11-01T09:17:43.734Z,971.09
2022-11-01T09:18:43.980Z,971.11
2022-11-01T09:19:44.229Z,971.10
2022-11-01T09:20:44.450Z,971.11
2022-11-01T09:21:44.827Z,971.14
2022-11-01T09:22:45.079Z,971.11
2022-11-01T09:23:45.307Z,971.11
2022-11-01T09:24:45.557Z,971.14
2022-11-01T09:25:45.799Z,971.16
2022-11-01T09:26:46.046Z,971.17
2022-11-01T09:27:46.261Z,971.17
2022-11-01T09:28:46.492Z,971.15
2022-11-01T09:29:50.994Z,971.13
2022-11-01T09:30:49.778Z,971.15
2022-11-01T09:31:48.382Z,971.15
2022-11-01T09:32:47.662Z,971.14
2022-11-01T09:33:48.032Z,971.21
2022-11-01T09:34:48.281Z,971.21
2022-11-01T09:35:50.824Z,971.24
2022-11-01T09:36:48.846Z,971.22
2022-11-01T09:37:49.098Z,971.21
2022-11-01T09:38:49.331Z,971.23
2022-11-01T09:39:49.671Z,971.25
2022-11-01T09:40:49.919Z,971.24
2022-11-01T09:41:50.127Z,971.27
2022-11-01T09:42:50.461Z,971.22
2022-11-01T09:43:50.704Z,971.21
2022-11-01T09:44:50.978Z,971.21
2022-11-01T09:45:51.251Z,971.22
2022-11-01T09:46:51.484Z,971.24
2022-11-01T09:47:51.702Z,971.22
2022-11-01T09:48:52.041Z,971.23
2022-11-01T09:49:52.281Z,971.19
2022-11-01T09:50:52.566Z,971.20
2022-11-01T09:51:52.805Z,971.22
2022-11-01T09:52:53.022Z,971.24
2022-11-01T09:53:53.381Z,971.22
2022-11-01T09:54:53.601Z,971.19
2022-11-01T09:55:53.939Z,971.21
2022-11-01T09:56:54.338Z,971.22
2022-11-01T09:57:58.336Z,971.22
2022-11-01T09:58:54.844Z,971.19
2022-11-01T09:59:55.230Z,971.21
2022-11-01T10:00:55.486Z,971.24
2022-11-01T10:01:55.853Z,971.21
2022-11-01T10:02:55.994Z,971.21
2022-11-01T10:03:56.266Z,971.22
2022-11-01T10:04:56.646Z,971.16
2022-11-01T10:05:56.870Z,971.20
2022-11-01T10:06:57.113Z,971.21
2022-11-01T10:07:57.350Z,971.19
2022-11-01T10:08:57.613Z,971.20
2022-11-01T10:09:57.860Z,971.22
2022-11-01T10:10:58.079Z,971.24
2022-11-01T10:11:58.419Z,971.25
2022-11-01T10:12:58.643Z,971.22
2022-11-01T10:13:58.894Z,971.23
2022-11-01T10:14:59.112Z,971.23
2022-11-01T10:15:59.461Z,971.22
2022-11-01T10:16:59.689Z,971.24
2022-11-01T10:17:59.912Z,971.22
2022-11-01T10:19:00.307Z,971.24
2022-11-01T10:20:00.600Z,971.23
2022-11-01T10:21:00.844Z,971.24
2022-11-01T10:22:01.244Z,971.26
2022-11-01T10:23:05.730Z,971.29
2022-11-01T10:24:01.834Z,971.26
2022-11-01T10:25:02.079Z,971.27
2022-11-01T10:26:02.341Z,971.26
2022-11-01T10:27:02.609Z,971.29
2022-11-01T10:28:02.824Z,971.28
2022-11-01T10:29:03.170Z,971.28
2022-11-01T10:30:03.384Z,971.31
2022-11-01T10:31:05.536Z,971.28
2022-11-01T10:32:03.975Z,971.34
2022-11-01T10:33:04.576Z,971.32
2022-11-01T10:34:04.488Z,971.35
2022-11-01T10:35:04.819Z,971.34
2022-11-01T10:36:05.190Z,971.29
2022-11-01T10:37:05.409Z,971.34
2022-11-01T10:38:19.364Z,971.31
2022-11-01T10:40:09.733Z,971.26
2022-11-01T10:41:06.573Z,971.26
2022-11-01T10:42:06.801Z,971.27
2022-11-01T10:43:07.033Z,971.28
2022-11-01T10:44:11.006Z,971.28
2022-11-01T10:45:07.515Z,971.32
2022-11-01T10:46:07.864Z,971.31
2022-11-01T10:47:08.102Z,971.33
2022-11-01T10:48:09.221Z,971.31
2022-11-01T10:49:08.744Z,971.29
2022-11-01T10:50:09.148Z,971.28
2022-11-01T10:51:09.380Z,971.28
2022-11-01T10:52:09.726Z,971.26
2022-11-01T10:53:10.041Z,971.29
2022-11-01T10:54:10.186Z,971.26
2022-11-01T10:55:10.525Z,971.24
2022-11-01T10:56:10.850Z,971.25
2022-11-01T10:57:11.213Z,971.24
2022-11-01T10:58:11.455Z,971.26
2022-11-01T10:59:11.674Z,971.28
2022-11-01T11:00:12.215Z,971.29
2022-11-01T11:01:12.509Z,971.27
2022-11-01T11:02:12.735Z,971.27
2022-11-01T11:03:12.924Z,971.29
2022-11-01T11:04:13.177Z,971.26
2022-11-01T11:05:13.414Z,971.26
2022-11-01T11:06:13.643Z,971.30
2022-11-01T11:07:13.866Z,971.28
2022-11-01T11:08:14.205Z,971.27
2022-11-01T11:09:14.577Z,971.25
2022-11-01T11:10:17.197Z,971.26
2022-11-01T11:11:15.097Z,971.30
2022-11-01T11:12:15.311Z,971.30
2022-11-01T11:13:15.633Z,971.29
2022-11-01T11:14:16.009Z,971.25
2022-11-01T11:15:16.299Z,971.28
2022-11-01T11:16:16.515Z,971.25
2022-11-01T11:17:16.883Z,971.27
2022-11-01T11:18:17.099Z,971.27
2022-11-01T11:19:17.429Z,971.29
2022-11-01T11:20:18.331Z,971.27
2022-11-01T11:21:18.127Z,971.27
2022-11-01T11:22:18.400Z,971.19
2022-11-01T11:23:18.642Z,971.22
2022-11-01T11:24:18.922Z,971.26
2022-11-01T11:25:19.181Z,971.28
2022-11-01T11:26:19.507Z,971.28
2022-11-01T11:27:19.758Z,971.22
2022-11-01T11:28:19.980Z,971.23
2022-11-01T11:29:20.350Z,971.22
2022-11-01T11:30:20.559Z,971.18
2022-11-01T11:31:20.886Z,971.19
2022-11-01T11:32:21.219Z,971.18
2022-11-01T11:33:21.573Z,971.19
2022-11-01T11:34:21.822Z,971.17
2022-11-01T11:35:22.034Z,971.21
2022-11-01T11:36:22.368Z,971.14
2022-11-01T11:37:22.714Z,971.13
2022-11-01T11:38:22.956Z,971.15
2022-11-01T11:39:23.164Z,971.22
2022-11-01T11:40:23.538Z,971.16
2022-11-01T11:41:23.745Z,971.18
2022-11-01T11:42:24.075Z,971.15
2022-11-01T11:43:24.436Z,971.15
2022-11-01T11:44:24.671Z,971.12
2022-11-01T11:45:26.844Z,971.11
2022-11-01T11:46:25.265Z,971.13
2022-11-01T11:47:25.609Z,971.12
2022-11-01T11:48:25.825Z,971.10
2022-11-01T11:49:26.179Z,971.10
2022-11-01T11:50:26.406Z,971.09
2022-11-01T11:51:26.666Z,971.10
2022-11-01T11:52:28.862Z,971.12
2022-11-01T11:53:27.177Z,971.11
2022-11-01T11:54:27.501Z,971.14
2022-11-01T11:55:27.843Z,971.11
2022-11-01T11:56:28.199Z,971.08
2022-11-01T11:57:28.413Z,971.09
2022-11-01T11:58:28.633Z,971.07
2022-11-01T11:59:28.947Z,971.06
2022-11-01T12:00:29.255Z,971.10
2022-11-01T12:01:29.631Z,971.04
2022-11-01T12:02:29.879Z,971.07
2022-11-01T12:03:30.103Z,971.06
2022-11-01T12:04:30.467Z,971.08
2022-11-01T12:05:30.684Z,971.09
2022-11-01T12:06:31.008Z,971.12
2022-11-01T12:07:31.352Z,971.09
2022-11-01T12:08:31.564Z,971.11
2022-11-01T12:09:31.927Z,971.09
2022-11-01T12:10:32.166Z,971.10
2022-11-01T12:11:32.383Z,971.09
2022-11-01T12:12:32.613Z,971.10
2022-11-01T12:13:32.936Z,971.13
2022-11-01T12:14:33.294Z,971.05
2022-11-01T12:15:38.308Z,971.08
2022-11-01T12:16:34.821Z,971.12
2022-11-01T12:17:34.087Z,971.11
2022-11-01T12:18:34.413Z,971.10
2022-11-01T12:19:34.808Z,971.11
2022-11-01T12:20:35.032Z,971.12
2022-11-01T12:21:35.383Z,971.10
2022-11-01T12:22:37.372Z,971.11
2022-11-01T12:23:35.926Z,971.16
2022-11-01T12:24:36.256Z,971.15
2022-11-01T12:25:36.627Z,971.08
2022-11-01T12:26:36.827Z,971.10
2022-11-01T12:27:37.125Z,971.08
2022-11-01T12:28:37.445Z,971.05
2022-11-01T12:29:37.762Z,971.07
2022-11-01T12:30:38.158Z,971.04
2022-11-01T12:31:38.361Z,971.06
2022-11-01T12:32:38.696Z,971.05
2022-11-01T12:33:38.913Z,971.03
2022-11-01T12:34:42.322Z,971.02